createdAt,value
2023-05-16T00:00:25.984Z,101023.34
2023-05-16T00:02:52.727Z,101004.34
2023-05-16T00:05:19.258Z,100956.00
2023-05-16T00:07:47.515Z,101043.53
2023-05-16T00:10:14.180Z,101038.66
2023-05-16T00:12:40.555Z,100952.69
2023-05-16T00:15:08.683Z,101032.41
2023-05-16T00:17:35.672Z,101001.44
2023-05-16T00:20:08.860Z,101036.78
2023-05-16T00:22:35.217Z,100990.56
2023-05-16T00:25:02.055Z,101027.13
2023-05-16T00:27:28.407Z,100974.38
2023-05-16T00:29:55.814Z,101048.63
2023-05-16T00:32:22.479Z,100970.34
2023-05-16T00:34:48.960Z,101014.59
2023-05-16T00:37:15.485Z,101043.69
2023-05-16T00:39:41.919Z,100921.88
2023-05-16T00:42:08.326Z,100940.31
2023-05-16T00:44:34.685Z,100942.81
2023-05-16T00:47:02.626Z,101030.88
2023-05-16T00:49:29.575Z,101056.69
2023-05-16T00:51:58.546Z,101022.34
2023-05-16T00:54:28.754Z,101051.91
2023-05-16T00:56:56.601Z,101023.38
2023-05-16T00:59:24.612Z,101043.22
2023-05-16T01:01:52.321Z,100917.28
2023-05-16T01:04:19.209Z,101036.66
2023-05-16T01:06:46.006Z,101005.00
2023-05-16T01:09:13.242Z,101071.34
2023-05-16T01:12:08.164Z,101061.97
2023-05-16T01:14:49.853Z,101070.72
2023-05-16T01:17:30.068Z,101022.09
2023-05-16T01:20:16.407Z,101041.53
2023-05-16T01:22:52.526Z,101066.59
2023-05-16T01:25:46.880Z,101074.16
2023-05-16T01:28:15.871Z,101054.38
2023-05-16T01:30:42.265Z,101033.56
2023-05-16T01:33:09.689Z,101072.63
2023-05-16T01:35:53.254Z,100976.84
2023-05-16T01:38:30.487Z,101029.25
2023-05-16T01:41:19.199Z,101052.50
2023-05-16T01:43:56.013Z,101022.47
2023-05-16T01:46:30.573Z,101052.22
2023-05-16T01:49:06.235Z,101058.41
2023-05-16T01:51:33.787Z,101011.00
2023-05-16T01:54:06.002Z,101074.97
2023-05-16T01:56:33.536Z,101079.81
2023-05-16T01:59:02.151Z,100990.22
2023-05-16T02:01:30.141Z,101007.91
2023-05-16T02:03:56.767Z,100985.47
2023-05-16T02:06:24.196Z,101010.00
2023-05-16T02:08:50.867Z,100987.31
2023-05-16T02:11:17.215Z,101054.72
2023-05-16T02:13:43.586Z,101075.31
2023-05-16T02:16:13.222Z,101083.69
2023-05-16T02:18:39.638Z,101087.63
2023-05-16T02:21:06.089Z,101084.88
2023-05-16T02:23:32.668Z,101085.94
2023-05-16T02:25:59.051Z,101025.75
2023-05-16T02:28:25.570Z,101111.22
2023-05-16T02:30:58.896Z,101028.63
2023-05-16T02:33:28.816Z,101115.88
2023-05-16T02:35:55.316Z,101114.41
2023-05-16T02:38:21.823Z,101140.25
2023-05-16T02:40:48.740Z,101124.53
2023-05-16T02:43:15.293Z,101068.44
2023-05-16T02:45:41.764Z,101132.75
2023-05-16T02:48:08.533Z,101143.31
2023-05-16T02:50:35.017Z,101145.84
2023-05-16T02:53:02.386Z,101058.63
2023-05-16T02:55:29.230Z,101165.69
2023-05-16T02:57:55.653Z,101121.56
2023-05-16T03:00:22.274Z,101149.44
2023-05-16T03:02:48.823Z,101147.81
2023-05-16T03:05:15.295Z,101125.53
2023-05-16T03:07:41.759Z,101155.66
2023-05-16T03:10:08.672Z,101174.72
2023-05-16T03:12:35.031Z,101153.50
2023-05-16T03:15:01.710Z,101148.94
2023-05-16T03:17:28.694Z,101151.63
2023-05-16T03:19:55.111Z,101113.59
2023-05-16T03:22:21.455Z,101147.06
2023-05-16T03:24:47.883Z,101167.22
2023-05-16T03:27:14.315Z,101066.19
2023-05-16T03:29:40.728Z,101104.22
2023-05-16T03:32:07.384Z,101071.41
2023-05-16T03:34:33.901Z,101138.13
2023-05-16T03:37:01.368Z,101028.34
2023-05-16T03:39:27.777Z,101178.22
2023-05-16T03:41:57.038Z,101167.94
2023-05-16T03:44:23.391Z,101155.78
2023-05-16T03:46:51.253Z,101204.22
2023-05-16T03:49:17.595Z,101170.59
2023-05-16T03:51:43.905Z,101147.16
2023-05-16T03:54:10.253Z,101226.88
2023-05-16T03:56:36.567Z,101197.44
2023-05-16T03:59:02.892Z,101159.56
2023-05-16T04:01:29.686Z,101208.94
2023-05-16T04:03:56.464Z,101180.38
2023-05-16T04:06:22.980Z,101229.56
2023-05-16T04:08:49.506Z,101205.44
2023-05-16T04:11:15.820Z,101217.78
2023-05-16T04:13:42.213Z,101233.28
2023-05-16T04:16:08.606Z,101196.16
2023-05-16T04:18:35.235Z,101174.59
2023-05-16T04:21:01.784Z,101209.38
2023-05-16T04:23:28.265Z,101213.00
2023-05-16T04:25:56.415Z,101210.50
2023-05-16T04:28:23.331Z,101248.50
2023-05-16T04:30:50.403Z,101194.72
2023-05-16T04:33:16.914Z,101109.97
2023-05-16T04:35:43.368Z,101246.94
2023-05-16T04:38:09.768Z,101201.97
2023-05-16T04:40:36.199Z,101234.84
2023-05-16T04:43:02.602Z,101143.91
2023-05-16T04:45:29.117Z,101259.19
2023-05-16T04:47:55.738Z,101225.34
2023-05-16T04:50:22.238Z,101196.72
2023-05-16T04:52:48.701Z,101262.63
2023-05-16T04:55:16.007Z,101259.19
2023-05-16T04:57:42.345Z,101147.44
2023-05-16T05:00:11.866Z,101250.38
2023-05-16T05:02:39.120Z,101285.78
2023-05-16T05:05:06.592Z,101274.59
2023-05-16T05:07:33.294Z,101281.47
2023-05-16T05:09:59.735Z,101205.16
2023-05-16T05:12:27.707Z,101224.22
2023-05-16T05:14:54.723Z,101292.47
2023-05-16T05:17:21.753Z,101296.72
2023-05-16T05:19:48.335Z,101258.47
2023-05-16T05:22:15.013Z,101275.13
2023-05-16T05:24:41.426Z,101242.97
2023-05-16T05:27:07.805Z,101295.75
2023-05-16T05:29:34.157Z,101204.09
2023-05-16T05:32:00.624Z,101198.88
2023-05-16T05:34:27.056Z,101282.16
2023-05-16T05:36:53.462Z,101285.53
2023-05-16T05:39:19.851Z,101291.59
2023-05-16T05:41:46.291Z,101302.06
2023-05-16T05:44:12.646Z,101298.38
2023-05-16T05:46:39.481Z,101209.03
2023-05-16T05:49:06.139Z,101153.63
2023-05-16T05:51:32.674Z,101177.81
2023-05-16T05:53:59.190Z,101284.22
2023-05-16T05:56:25.603Z,101313.69
2023-05-16T05:58:52.065Z,101147.28
2023-05-16T06:01:18.573Z,101228.72
2023-05-16T06:03:45.013Z,101207.88
2023-05-16T06:06:11.391Z,101228.56
2023-05-16T06:08:40.184Z,101264.06
2023-05-16T06:11:06.720Z,101304.31
2023-05-16T06:13:33.125Z,101322.66
2023-05-16T06:15:59.459Z,101291.34
2023-05-16T06:18:25.799Z,101308.75
2023-05-16T06:20:53.140Z,101211.53
2023-05-16T06:23:21.339Z,101339.38
2023-05-16T06:25:47.923Z,101177.31
2023-05-16T06:28:14.281Z,101225.88
2023-05-16T06:30:40.807Z,101230.91
2023-05-16T06:33:10.295Z,101325.84
2023-05-16T06:35:36.644Z,101281.03
2023-05-16T06:38:02.995Z,101328.66
2023-05-16T06:40:29.389Z,101218.41
2023-05-16T06:42:58.336Z,101327.28
2023-05-16T06:45:24.782Z,101361.63
2023-05-16T06:47:51.327Z,101294.31
2023-05-16T06:50:17.832Z,101354.03
2023-05-16T06:52:44.397Z,101341.91
2023-05-16T06:58:59.331Z,101375.13
2023-05-16T07:01:25.716Z,101254.03
2023-05-16T07:03:52.507Z,101260.59
2023-05-16T07:06:19.118Z,101345.31
2023-05-16T07:08:45.618Z,101374.81
2023-05-16T07:11:12.024Z,101346.78
2023-05-16T07:13:38.423Z,101369.09
2023-05-16T07:16:09.097Z,101281.78
2023-05-16T07:18:35.632Z,101339.59
2023-05-16T07:21:02.105Z,101360.22
2023-05-16T07:23:28.716Z,101324.69
2023-05-16T07:25:55.178Z,101383.22
2023-05-16T07:28:22.130Z,101254.19
2023-05-16T07:30:48.676Z,101280.66
2023-05-16T07:33:15.199Z,101374.88
2023-05-16T07:35:41.643Z,101378.91
2023-05-16T07:38:08.038Z,101372.41
2023-05-16T07:40:34.445Z,101265.41
2023-05-16T07:43:02.764Z,101301.00
2023-05-16T07:45:29.474Z,101373.00
2023-05-16T07:47:56.258Z,101291.88
2023-05-16T07:50:22.667Z,101356.59
2023-05-16T07:52:49.207Z,101202.31
2023-05-16T07:55:15.659Z,101397.50
2023-05-16T07:57:43.621Z,101256.66
2023-05-16T08:00:10.722Z,101336.19
2023-05-16T08:02:39.631Z,101388.28
2023-05-16T08:05:07.049Z,101384.59
2023-05-16T08:07:33.637Z,101303.78
2023-05-16T08:10:00.012Z,101345.34
2023-05-16T08:12:27.401Z,101377.91
2023-05-16T08:14:53.806Z,101344.28
2023-05-16T08:17:20.306Z,101243.56
2023-05-16T08:19:46.780Z,101348.94
2023-05-16T08:22:13.326Z,101245.88
2023-05-16T08:24:39.862Z,101318.06
2023-05-16T08:27:06.276Z,101371.56
2023-05-16T08:29:32.755Z,101250.88
2023-05-16T08:31:59.396Z,101371.59
2023-05-16T08:34:26.057Z,101221.47
2023-05-16T08:36:54.727Z,101368.28
2023-05-16T08:39:21.190Z,101377.56
2023-05-16T08:41:47.894Z,101399.75
2023-05-16T08:44:21.211Z,101367.06
2023-05-16T08:46:52.796Z,101359.25
2023-05-16T08:49:20.038Z,101382.53
2023-05-16T08:51:47.942Z,101355.16
2023-05-16T08:54:16.022Z,101369.66
2023-05-16T08:56:43.258Z,101313.50
2023-05-16T08:59:11.525Z,101384.41
2023-05-16T09:01:38.385Z,101401.88
2023-05-16T09:04:07.953Z,101392.72
2023-05-16T09:06:34.929Z,101378.72
2023-05-16T09:09:02.476Z,101391.03
2023-05-16T09:11:29.150Z,101293.69
2023-05-16T09:13:55.743Z,101346.69
2023-05-16T09:16:22.149Z,101362.97
2023-05-16T09:18:56.981Z,101386.13
2023-05-16T09:21:28.283Z,101338.47
2023-05-16T09:23:55.341Z,101393.25
2023-05-16T09:26:22.681Z,101392.66
2023-05-16T09:28:49.191Z,101336.22
2023-05-16T09:31:31.753Z,101385.25
2023-05-16T09:33:58.387Z,101375.16
2023-05-16T09:36:26.026Z,101379.63
2023-05-16T09:38:53.164Z,101385.28
2023-05-16T09:41:22.018Z,101380.25
2023-05-16T09:43:48.457Z,101346.78
2023-05-16T09:46:15.604Z,101374.53
2023-05-16T09:48:45.371Z,101269.53
2023-05-16T09:51:12.800Z,101277.66
2023-05-16T09:53:40.630Z,101257.88
2023-05-16T09:56:11.251Z,101378.81
2023-05-16T09:58:39.689Z,101288.00
2023-05-16T10:01:07.261Z,101354.13
2023-05-16T10:03:39.307Z,101371.94
2023-05-16T10:06:06.871Z,101377.22
2023-05-16T10:08:38.657Z,101365.47
2023-05-16T10:11:06.436Z,101391.63
2023-05-16T10:13:36.879Z,101364.97
2023-05-16T10:16:13.993Z,101326.13
2023-05-16T10:18:42.794Z,101326.28
2023-05-16T10:21:15.338Z,101255.94
2023-05-16T10:23:43.310Z,101383.41
2023-05-16T10:26:11.770Z,101284.22
2023-05-16T10:28:42.589Z,101384.69
2023-05-16T10:31:12.702Z,101342.84
2023-05-16T10:33:39.840Z,101381.75
2023-05-16T10:36:08.680Z,101311.78
2023-05-16T10:38:36.370Z,101331.94
2023-05-16T10:41:03.376Z,101291.34
2023-05-16T10:43:30.928Z,101334.97
2023-05-16T10:46:02.868Z,101385.28
2023-05-16T10:48:38.655Z,101320.28
2023-05-16T10:51:23.418Z,101373.50
2023-05-16T10:54:06.230Z,101308.06
2023-05-16T10:56:33.252Z,101347.75
2023-05-16T10:58:59.691Z,101324.66
2023-05-16T11:01:30.436Z,101361.44
2023-05-16T11:03:56.876Z,101362.03
2023-05-16T11:06:49.530Z,101352.19
2023-05-16T11:09:28.349Z,101348.44
2023-05-16T11:11:59.370Z,101338.88
2023-05-16T11:14:32.146Z,101347.09
2023-05-16T11:17:07.647Z,101364.09
2023-05-16T11:19:45.396Z,101349.38
2023-05-16T11:22:16.601Z,101363.59
2023-05-16T11:24:50.300Z,101382.16
2023-05-16T11:27:25.475Z,101363.34
2023-05-16T11:29:53.470Z,101232.63
2023-05-16T11:32:22.292Z,101371.44
2023-05-16T11:34:50.311Z,101282.88
2023-05-16T11:37:18.591Z,101354.78
2023-05-16T11:39:45.221Z,101327.06
2023-05-16T11:42:13.271Z,101358.53
2023-05-16T11:44:40.995Z,101317.53
2023-05-16T11:47:08.038Z,101350.06
2023-05-16T11:49:35.546Z,101343.22
2023-05-16T11:52:03.157Z,101357.47
2023-05-16T11:54:30.078Z,101245.66
2023-05-16T11:56:56.627Z,101331.00
2023-05-16T11:59:23.759Z,101328.34
2023-05-16T12:01:50.471Z,101262.97
2023-05-16T12:04:18.078Z,101354.47
2023-05-16T12:06:45.113Z,101331.34
2023-05-16T12:09:14.293Z,101327.88
2023-05-16T12:11:43.465Z,101347.75
2023-05-16T12:14:12.016Z,101347.47
2023-05-16T12:16:39.750Z,101336.50
2023-05-16T12:19:06.962Z,101331.56
2023-05-16T12:21:34.111Z,101241.13
2023-05-16T12:24:01.029Z,101345.38
2023-05-16T12:26:30.895Z,101354.06
2023-05-16T12:29:00.745Z,101342.25
2023-05-16T12:31:32.124Z,101311.16
2023-05-16T12:33:59.545Z,101192.63
2023-05-16T12:36:26.368Z,101273.47
2023-05-16T12:38:53.664Z,101339.38
2023-05-16T12:41:21.675Z,101341.41
2023-05-16T12:43:49.216Z,101309.25
2023-05-16T12:46:16.370Z,101358.28
2023-05-16T12:48:44.111Z,101333.53
2023-05-16T12:51:15.213Z,101326.56
2023-05-16T12:53:57.567Z,101350.50
2023-05-16T12:56:32.401Z,101370.97
2023-05-16T12:58:58.784Z,101300.00
2023-05-16T13:01:25.241Z,101330.31
2023-05-16T13:03:51.887Z,101281.75
2023-05-16T13:06:18.493Z,101353.56
2023-05-16T13:08:44.872Z,101325.00
2023-05-16T13:11:11.231Z,101345.00
2023-05-16T13:13:37.682Z,101322.88
2023-05-16T13:16:04.340Z,101258.81
2023-05-16T13:18:31.336Z,101342.63
2023-05-16T13:20:57.888Z,101363.97
2023-05-16T13:23:24.293Z,101326.78
2023-05-16T13:25:52.918Z,101345.25
2023-05-16T13:28:19.360Z,101387.66
2023-05-16T13:30:45.776Z,101354.00
2023-05-16T13:33:12.461Z,101371.69
2023-05-16T13:35:39.071Z,101346.50
2023-05-16T13:38:05.485Z,101360.59
2023-05-16T13:40:32.786Z,101326.94
2023-05-16T13:43:00.917Z,101333.19
2023-05-16T13:45:28.986Z,101352.25
2023-05-16T13:47:55.701Z,101360.75
2023-05-16T13:50:22.173Z,101371.34
2023-05-16T13:52:48.710Z,101387.66
2023-05-16T13:55:15.202Z,101365.41
2023-05-16T13:57:41.716Z,101370.59
2023-05-16T14:00:35.153Z,101294.34
2023-05-16T14:02:58.768Z,101239.53
2023-05-16T14:05:26.150Z,101347.91
2023-05-16T14:07:52.610Z,101332.34
2023-05-16T14:10:19.111Z,101344.06
2023-05-16T14:12:45.706Z,101375.88
2023-05-16T14:15:12.109Z,101380.94
2023-05-16T14:17:38.795Z,101376.00
2023-05-16T14:20:10.142Z,101391.91
2023-05-16T14:22:37.659Z,101373.69
2023-05-16T14:25:04.681Z,101386.72
2023-05-16T14:27:31.098Z,101311.13
2023-05-16T14:29:59.056Z,101329.56
2023-05-16T14:32:25.639Z,101377.00
2023-05-16T14:34:52.094Z,101306.75
2023-05-16T14:37:18.549Z,101399.91
2023-05-16T14:39:46.442Z,101416.78
2023-05-16T14:42:12.929Z,101353.91
2023-05-16T14:44:39.290Z,101389.22
2023-05-16T14:47:06.537Z,101413.53
2023-05-16T14:49:32.933Z,101399.81
2023-05-16T14:51:59.346Z,101369.97
2023-05-16T14:54:25.746Z,101335.06
2023-05-16T14:56:52.206Z,101370.47
2023-05-16T14:59:18.628Z,101338.19
2023-05-16T15:01:46.836Z,101394.78
2023-05-16T15:04:13.228Z,101396.50
2023-05-16T15:06:39.596Z,101420.91
2023-05-16T15:09:08.749Z,101400.03
2023-05-16T15:11:35.186Z,101406.88
2023-05-16T15:14:01.854Z,101368.59
2023-05-16T15:16:30.295Z,101409.34
2023-05-16T15:18:56.973Z,101408.53
2023-05-16T15:21:23.630Z,101422.88
2023-05-16T15:23:50.258Z,101434.09
2023-05-16T15:26:17.551Z,101438.44
2023-05-16T15:28:44.121Z,101415.13
2023-05-16T15:31:10.700Z,101412.63
2023-05-16T15:33:37.096Z,101450.06
2023-05-16T15:36:03.871Z,101431.00
2023-05-16T15:38:30.599Z,101322.63
2023-05-16T15:41:14.194Z,101394.31
2023-05-16T15:43:43.498Z,101413.63
2023-05-16T15:46:11.195Z,101422.78
2023-05-16T15:48:42.655Z,101444.06
2023-05-16T15:51:09.412Z,101397.50
2023-05-16T15:53:35.824Z,101446.41
2023-05-16T15:56:02.346Z,101349.47
2023-05-16T15:58:28.998Z,101443.59
2023-05-16T16:00:55.946Z,101417.34
2023-05-16T16:03:22.604Z,101422.06
2023-05-16T16:05:50.102Z,101430.69
2023-05-16T16:08:16.645Z,101456.53
2023-05-16T16:10:43.093Z,101360.19
2023-05-16T16:13:09.671Z,101403.34
2023-05-16T16:15:36.491Z,101447.41
2023-05-16T16:18:03.269Z,101447.41
2023-05-16T16:20:29.892Z,101398.06
2023-05-16T16:22:56.352Z,101448.50
2023-05-16T16:25:22.899Z,101433.06
2023-05-16T16:27:49.283Z,101474.16
2023-05-16T16:30:15.665Z,101431.34
2023-05-16T16:32:42.088Z,101463.56
2023-05-16T16:35:08.916Z,101420.69
2023-05-16T16:37:35.469Z,101453.22
2023-05-16T16:40:02.190Z,101452.19
2023-05-16T16:42:30.529Z,101456.69
2023-05-16T16:44:57.325Z,101362.88
2023-05-16T16:47:25.023Z,101433.69
2023-05-16T16:49:51.566Z,101456.25
2023-05-16T16:52:17.950Z,101402.94
2023-05-16T16:54:44.450Z,101468.06
2023-05-16T16:57:10.888Z,101421.19
2023-05-16T16:59:37.328Z,101453.91
2023-05-16T17:02:03.779Z,101449.91
2023-05-16T17:04:31.476Z,101469.97
2023-05-16T17:06:57.889Z,101457.13
2023-05-16T17:09:25.301Z,101499.25
2023-05-16T17:11:52.113Z,101470.84
2023-05-16T17:14:18.613Z,101473.66
2023-05-16T17:16:45.317Z,101459.56
2023-05-16T17:19:11.771Z,101420.00
2023-05-16T17:21:40.430Z,101508.38
2023-05-16T17:24:07.627Z,101483.03
2023-05-16T17:26:34.205Z,101479.50
2023-05-16T17:29:00.841Z,101469.50
2023-05-16T17:31:28.060Z,101520.78
2023-05-16T17:33:54.474Z,101474.78
2023-05-16T17:36:21.370Z,101450.84
2023-05-16T17:38:48.704Z,101480.63
2023-05-16T17:41:15.428Z,101505.13
2023-05-16T17:43:44.640Z,101485.69
2023-05-16T17:46:11.841Z,101475.34
2023-05-16T17:48:38.331Z,101481.88
2023-05-16T17:51:04.908Z,101498.53
2023-05-16T17:53:31.311Z,101511.34
2023-05-16T17:55:57.953Z,101517.72
2023-05-16T17:58:24.361Z,101485.34
2023-05-16T18:00:51.053Z,101492.34
2023-05-16T18:03:17.641Z,101498.47
2023-05-16T18:05:44.164Z,101471.53
2023-05-16T18:08:10.603Z,101529.31
2023-05-16T18:10:51.053Z,101514.00
2023-05-16T18:13:18.399Z,101543.84
2023-05-16T18:15:44.820Z,101419.72
2023-05-16T18:18:11.727Z,101496.94
2023-05-16T18:20:38.296Z,101520.00
2023-05-16T18:23:04.827Z,101506.97
2023-05-16T18:25:32.109Z,101502.69
2023-05-16T18:27:58.501Z,101524.13
2023-05-16T18:30:25.783Z,101480.34
2023-05-16T18:32:52.296Z,101521.38
2023-05-16T18:35:18.916Z,101485.75
2023-05-16T18:37:45.746Z,101503.88
2023-05-16T18:40:12.639Z,101525.09
2023-05-16T18:42:39.204Z,101522.22
2023-05-16T18:45:06.315Z,101531.78
2023-05-16T18:47:32.870Z,101522.09
2023-05-16T18:49:59.363Z,101511.75
2023-05-16T18:52:25.753Z,101422.78
2023-05-16T18:54:52.356Z,101519.81
2023-05-16T18:57:18.817Z,101499.44
2023-05-16T18:59:45.330Z,101544.31
2023-05-16T19:02:11.858Z,101525.38
2023-05-16T19:04:38.418Z,101542.69
2023-05-16T19:07:06.604Z,101536.25
2023-05-16T19:09:34.334Z,101503.34
2023-05-16T19:12:00.757Z,101501.72
2023-05-16T19:14:27.989Z,101536.34
2023-05-16T19:16:54.488Z,101546.34
2023-05-16T19:19:21.120Z,101505.59
2023-05-16T19:21:47.881Z,101471.44
2023-05-16T19:24:14.910Z,101473.97
2023-05-16T19:26:41.428Z,101544.47
2023-05-16T19:29:07.952Z,101546.25
2023-05-16T19:31:34.344Z,101517.81
2023-05-16T19:34:00.861Z,101535.22
2023-05-16T19:36:27.401Z,101551.66
2023-05-16T19:38:53.780Z,101511.34
2023-05-16T19:41:21.435Z,101498.19
2023-05-16T19:43:47.828Z,101462.72
2023-05-16T19:46:14.611Z,101496.91
2023-05-16T19:48:41.072Z,101537.34
2023-05-16T19:51:09.072Z,101530.91
2023-05-16T19:53:35.999Z,101564.00
2023-05-16T19:56:02.513Z,101535.22
2023-05-16T19:58:28.954Z,101596.34
2023-05-16T20:00:56.539Z,101541.84
2023-05-16T20:03:23.680Z,101557.03
2023-05-16T20:05:50.113Z,101576.16
2023-05-16T20:08:16.657Z,101568.50
2023-05-16T20:10:43.352Z,101540.44
2023-05-16T20:13:09.825Z,101554.28
2023-05-16T20:15:36.887Z,101556.09
2023-05-16T20:18:03.611Z,101586.06
2023-05-16T20:20:30.223Z,101571.50
2023-05-16T20:22:56.676Z,101578.34
2023-05-16T20:25:23.210Z,101563.03
2023-05-16T20:27:49.662Z,101596.16
2023-05-16T20:30:16.086Z,101573.19
2023-05-16T20:32:42.648Z,101550.16
2023-05-16T20:35:11.149Z,101515.75
2023-05-16T20:37:37.828Z,101511.28
2023-05-16T20:40:06.036Z,101614.34
2023-05-16T20:42:32.430Z,101590.53
2023-05-16T20:44:58.811Z,101572.28
2023-05-16T20:47:25.432Z,101600.41
2023-05-16T20:49:51.990Z,101580.56
2023-05-16T20:52:19.848Z,101592.34
2023-05-16T20:54:47.767Z,101584.13
2023-05-16T20:57:14.244Z,101564.44
2023-05-16T20:59:40.944Z,101630.41
2023-05-16T21:02:09.936Z,101613.22
2023-05-16T21:04:39.622Z,101622.63
2023-05-16T21:07:08.126Z,101547.41
2023-05-16T21:09:36.733Z,101542.22
2023-05-16T21:12:03.551Z,101623.88
2023-05-16T21:14:29.903Z,101507.75
2023-05-16T21:16:56.305Z,101472.16
2023-05-16T21:19:22.797Z,101638.28
2023-05-16T21:21:49.334Z,101606.97
2023-05-16T21:24:16.022Z,101621.91
2023-05-16T21:26:42.419Z,101583.97
2023-05-16T21:29:08.828Z,101621.34
2023-05-16T21:31:35.250Z,101489.41
2023-05-16T21:34:01.718Z,101522.25
2023-05-16T21:36:28.214Z,101601.06
2023-05-16T21:38:54.656Z,101638.63
2023-05-16T21:41:22.103Z,101551.81
2023-05-16T21:43:48.549Z,101491.25
2023-05-16T21:46:15.108Z,101642.28
2023-05-16T21:48:41.644Z,101624.88
2023-05-16T21:51:08.455Z,101639.75
2023-05-16T21:53:35.002Z,101557.41
2023-05-16T21:56:01.483Z,101634.63
2023-05-16T21:58:27.855Z,101535.59
2023-05-16T22:00:54.238Z,101461.91
2023-05-16T22:03:21.392Z,101623.28
2023-05-16T22:05:48.153Z,101645.84
2023-05-16T22:08:14.647Z,101520.28
2023-05-16T22:10:41.061Z,101620.16
2023-05-16T22:13:08.093Z,101610.63
2023-05-16T22:15:34.998Z,101557.94
2023-05-16T22:18:01.672Z,101634.84
2023-05-16T22:20:28.491Z,101572.84
2023-05-16T22:22:54.900Z,101638.91
2023-05-16T22:25:21.365Z,101520.84
2023-05-16T22:27:47.773Z,101401.06
2023-05-16T22:30:14.260Z,101614.50
2023-05-16T22:32:40.870Z,101547.09
2023-05-16T22:35:07.624Z,101619.03
2023-05-16T22:37:34.064Z,101573.13
2023-05-16T22:40:00.662Z,101545.38
2023-05-16T22:42:27.337Z,101637.31
2023-05-16T22:44:53.805Z,101448.34
2023-05-16T22:47:20.939Z,101650.41
2023-05-16T22:49:47.356Z,101566.22
2023-05-16T22:52:13.783Z,101649.47
2023-05-16T22:54:41.574Z,101564.50
2023-05-16T22:57:08.092Z,101537.03
2023-05-16T22:59:34.591Z,101535.56
2023-05-16T23:02:01.159Z,101682.28
2023-05-16T23:04:27.543Z,101658.09
2023-05-16T23:06:54.006Z,101631.22
2023-05-16T23:09:20.403Z,101584.47
2023-05-16T23:11:46.845Z,101648.50
2023-05-16T23:14:13.213Z,101632.22
2023-05-16T23:16:39.609Z,101643.38
2023-05-16T23:19:09.105Z,101675.59
2023-05-16T23:21:36.154Z,101558.53
2023-05-16T23:24:02.724Z,101558.50
2023-05-16T23:26:29.204Z,101645.31
2023-05-16T23:28:55.631Z,101636.66
2023-05-16T23:31:22.022Z,101576.91
2023-05-16T23:33:48.452Z,101643.59
2023-05-16T23:36:14.898Z,101530.78
2023-05-16T23:38:41.281Z,101561.19
2023-05-16T23:41:07.719Z,101683.59
2023-05-16T23:43:34.121Z,101675.25
2023-05-16T23:46:00.581Z,101521.00
2023-05-16T23:48:27.094Z,101529.78
2023-05-16T23:50:53.526Z,101647.88
2023-05-16T23:53:21.015Z,101584.28
2023-05-16T23:55:47.382Z,101678.09
2023-05-16T23:58:14.251Z,101625.28
